createdAt,value
2018-07-03T00:00:49.895Z,12.09
2018-07-03T00:01:49.906Z,11.99
2018-07-03T00:02:49.869Z,11.91
2018-07-03T00:03:49.865Z,11.83
2018-07-03T00:04:49.852Z,11.75
2018-07-03T00:05:49.844Z,11.63
2018-07-03T00:06:49.833Z,11.65
2018-07-03T00:07:49.817Z,11.73
2018-07-03T00:08:49.810Z,11.83
2018-07-03T00:09:49.796Z,11.78
2018-07-03T00:10:49.783Z,11.90
2018-07-03T00:11:49.780Z,11.95
2018-07-03T00:12:49.768Z,12.04
2018-07-03T00:13:49.755Z,12.10
2018-07-03T00:14:49.749Z,12.07
2018-07-03T00:15:49.728Z,12.06
2018-07-03T00:16:49.729Z,11.90
2018-07-03T00:17:49.749Z,11.91
2018-07-03T00:18:49.704Z,11.87
2018-07-03T00:19:49.690Z,11.83
2018-07-03T00:20:49.677Z,11.73
2018-07-03T00:21:49.668Z,11.66
2018-07-03T00:22:49.654Z,11.52
2018-07-03T00:23:49.653Z,11.55
2018-07-03T00:24:49.637Z,11.44
2018-07-03T00:25:49.627Z,11.40
2018-07-03T00:26:49.619Z,11.30
2018-07-03T00:27:49.601Z,11.26
2018-07-03T00:28:49.594Z,11.17
2018-07-03T00:29:49.582Z,11.17
2018-07-03T00:30:49.570Z,11.10
2018-07-03T00:31:49.565Z,11.14
2018-07-03T00:32:49.553Z,11.07
2018-07-03T00:33:49.551Z,10.99
2018-07-03T00:34:49.525Z,11.04
2018-07-03T00:35:49.544Z,10.94
2018-07-03T00:36:49.510Z,10.79
2018-07-03T00:37:49.498Z,10.76
2018-07-03T00:38:49.492Z,10.72
2018-07-03T00:39:49.476Z,10.75
2018-07-03T00:40:49.478Z,10.72
2018-07-03T00:41:49.453Z,10.71
2018-07-03T00:42:49.439Z,10.74
2018-07-03T00:43:49.437Z,10.69
2018-07-03T00:44:49.423Z,10.68
2018-07-03T00:45:49.412Z,10.57
2018-07-03T00:46:49.403Z,10.56
2018-07-03T00:47:49.385Z,10.53
2018-07-03T00:48:49.395Z,10.46
2018-07-03T00:49:49.368Z,10.44
2018-07-03T00:50:49.360Z,10.42
2018-07-03T00:51:49.343Z,10.46
2018-07-03T00:52:49.336Z,10.26
2018-07-03T00:53:49.358Z,10.30
2018-07-03T00:54:49.309Z,10.33
2018-07-03T00:55:49.305Z,10.26
2018-07-03T00:56:49.321Z,10.16
2018-07-03T00:57:49.282Z,10.16
2018-07-03T00:58:49.274Z,10.16
2018-07-03T00:59:49.258Z,10.10
2018-07-03T01:00:49.247Z,10.05
2018-07-03T01:01:49.239Z,10.04
2018-07-03T01:02:49.222Z,10.19
2018-07-03T01:03:49.231Z,10.12
2018-07-03T01:04:49.208Z,10.05
2018-07-03T01:05:49.193Z,10.20
2018-07-03T01:06:49.180Z,10.17
2018-07-03T01:07:49.179Z,10.07
2018-07-03T01:08:49.162Z,10.15
2018-07-03T01:09:49.180Z,10.15
2018-07-03T01:10:49.143Z,10.10
2018-07-03T01:11:49.125Z,10.07
2018-07-03T01:12:49.117Z,9.99
2018-07-03T01:13:49.107Z,9.91
2018-07-03T01:14:49.094Z,9.98
2018-07-03T01:15:49.097Z,9.92
2018-07-03T01:16:49.077Z,9.95
2018-07-03T01:17:49.065Z,9.97
2018-07-03T01:18:49.056Z,9.79
2018-07-03T01:19:49.039Z,9.77
2018-07-03T01:20:49.033Z,9.79
2018-07-03T01:21:49.022Z,9.83
2018-07-03T01:22:49.020Z,9.68
2018-07-03T01:23:48.996Z,9.66
2018-07-03T01:24:48.987Z,9.58
2018-07-03T01:25:48.977Z,9.59
2018-07-03T01:26:48.963Z,9.56
2018-07-03T01:27:48.957Z,9.55
2018-07-03T01:28:48.941Z,9.54
2018-07-03T01:29:48.932Z,9.46
2018-07-03T01:30:48.941Z,9.47
2018-07-03T01:31:48.913Z,9.50
2018-07-03T01:32:48.905Z,9.51
2018-07-03T01:33:48.894Z,9.46
2018-07-03T01:34:48.880Z,9.43
2018-07-03T01:35:48.889Z,9.47
2018-07-03T01:36:48.854Z,9.41
2018-07-03T01:37:48.870Z,9.47
2018-07-03T01:38:48.840Z,9.44
2018-07-03T01:39:48.838Z,9.29
2018-07-03T01:40:48.851Z,9.36
2018-07-03T01:41:48.801Z,9.32
2018-07-03T01:42:48.793Z,9.36
2018-07-03T01:43:48.801Z,9.50
2018-07-03T01:44:48.824Z,9.47
2018-07-03T01:45:48.777Z,9.47
2018-07-03T01:46:48.783Z,9.58
2018-07-03T01:47:48.741Z,9.59
2018-07-03T01:48:48.752Z,9.48
2018-07-03T01:49:48.716Z,9.50
2018-07-03T01:50:48.706Z,9.40
2018-07-03T01:51:48.699Z,9.31
2018-07-03T01:52:48.689Z,9.29
2018-07-03T01:53:48.671Z,9.26
2018-07-03T01:54:48.662Z,9.22
2018-07-03T01:55:48.654Z,9.18
2018-07-03T01:56:48.648Z,9.08
2018-07-03T01:57:48.638Z,9.13
2018-07-03T01:58:48.622Z,9.16
2018-07-03T01:59:48.610Z,9.14
2018-07-03T02:00:48.599Z,9.16
2018-07-03T02:01:48.588Z,9.10
2018-07-03T02:02:48.585Z,9.03
2018-07-03T02:03:48.569Z,9.02
2018-07-03T02:04:48.563Z,8.87
2018-07-03T02:05:48.548Z,8.76
2018-07-03T02:06:48.554Z,8.84
2018-07-03T02:07:48.523Z,8.73
2018-07-03T02:08:48.509Z,8.76
2018-07-03T02:09:48.506Z,8.70
2018-07-03T02:10:48.493Z,8.67
2018-07-03T02:11:48.494Z,8.69
2018-07-03T02:12:48.467Z,8.74
2018-07-03T02:13:48.457Z,8.71
2018-07-03T02:14:48.447Z,8.84
2018-07-03T02:15:48.439Z,8.76
2018-07-03T02:16:48.444Z,8.94
2018-07-03T02:17:48.427Z,8.87
2018-07-03T02:18:48.412Z,8.97
2018-07-03T02:19:48.397Z,8.79
2018-07-03T02:20:48.383Z,8.74
2018-07-03T02:21:48.396Z,8.81
2018-07-03T02:22:48.363Z,8.73
2018-07-03T02:23:48.362Z,8.73
2018-07-03T02:24:48.342Z,8.78
2018-07-03T02:25:48.331Z,8.66
2018-07-03T02:26:48.335Z,8.63
2018-07-03T02:27:48.312Z,8.51
2018-07-03T02:28:48.299Z,8.52
2018-07-03T02:29:48.288Z,8.51
2018-07-03T02:30:48.280Z,8.55
2018-07-03T02:31:48.295Z,8.52
2018-07-03T02:32:48.255Z,8.56
2018-07-03T02:33:48.257Z,8.46
2018-07-03T02:34:48.231Z,8.34
2018-07-03T02:35:48.228Z,8.51
2018-07-03T02:36:48.214Z,8.38
2018-07-03T02:37:48.208Z,8.38
2018-07-03T02:38:48.194Z,8.44
2018-07-03T02:39:48.178Z,8.37
2018-07-03T02:40:48.174Z,8.38
2018-07-03T02:41:48.163Z,8.34
2018-07-03T02:42:48.186Z,8.34
2018-07-03T02:43:48.134Z,8.48
2018-07-03T02:44:48.126Z,8.34
2018-07-03T02:45:48.130Z,8.37
2018-07-03T02:46:48.122Z,8.41
2018-07-03T02:47:48.103Z,8.37
2018-07-03T02:48:48.086Z,8.31
2018-07-03T02:49:48.073Z,8.34
2018-07-03T02:50:48.066Z,8.24
2018-07-03T02:51:48.048Z,8.24
2018-07-03T02:52:48.062Z,8.20
2018-07-03T02:53:48.035Z,8.19
2018-07-03T02:54:48.017Z,8.13
2018-07-03T02:55:48.012Z,8.15
2018-07-03T02:56:48.000Z,8.08
2018-07-03T02:57:48.020Z,8.16
2018-07-03T02:58:47.974Z,8.12
2018-07-03T02:59:47.969Z,8.23
2018-07-03T03:00:47.957Z,8.23
2018-07-03T03:01:47.993Z,8.19
2018-07-03T03:02:47.993Z,8.18
2018-07-03T03:03:47.972Z,8.23
2018-07-03T03:04:47.914Z,8.26
2018-07-03T03:05:47.951Z,8.19
2018-07-03T03:06:47.889Z,8.24
2018-07-03T03:07:47.885Z,8.24
2018-07-03T03:08:47.875Z,8.20
2018-07-03T03:09:47.861Z,8.19
2018-07-03T03:10:47.853Z,8.18
2018-07-03T03:11:47.854Z,8.15
2018-07-03T03:12:47.830Z,8.18
2018-07-03T03:13:47.844Z,8.15
2018-07-03T03:14:47.809Z,8.13
2018-07-03T03:15:47.793Z,8.09
2018-07-03T03:16:47.784Z,8.15
2018-07-03T03:17:47.779Z,8.13
2018-07-03T03:18:47.779Z,8.18
2018-07-03T03:19:47.756Z,8.13
2018-07-03T03:20:47.749Z,8.06
2018-07-03T03:21:47.738Z,8.01
2018-07-03T03:22:47.725Z,8.03
2018-07-03T03:23:47.732Z,8.05
2018-07-03T03:24:47.704Z,8.05
2018-07-03T03:25:47.689Z,8.05
2018-07-03T03:26:47.693Z,8.03
2018-07-03T03:27:47.669Z,8.12
2018-07-03T03:28:47.656Z,8.20
2018-07-03T03:29:47.652Z,8.24
2018-07-03T03:30:47.631Z,8.33
2018-07-03T03:31:47.630Z,8.30
2018-07-03T03:32:47.616Z,8.31
2018-07-03T03:33:47.602Z,8.19
2018-07-03T03:34:47.613Z,8.19
2018-07-03T03:35:47.579Z,8.16
2018-07-03T03:36:47.567Z,8.23
2018-07-03T03:37:47.556Z,8.12
2018-07-03T03:38:47.545Z,8.08
2018-07-03T03:39:47.604Z,8.01
2018-07-03T03:40:47.557Z,8.01
2018-07-03T03:41:47.516Z,7.95
2018-07-03T03:42:47.509Z,7.93
2018-07-03T03:43:47.492Z,8.00
2018-07-03T03:44:47.486Z,7.90
2018-07-03T03:45:47.474Z,7.94
2018-07-03T03:46:47.467Z,7.95
2018-07-03T03:47:47.447Z,7.97
2018-07-03T03:48:47.447Z,8.06
2018-07-03T03:49:47.431Z,8.05
2018-07-03T03:50:47.416Z,8.18
2018-07-03T03:51:47.412Z,8.23
2018-07-03T03:52:47.401Z,8.19
2018-07-03T03:53:47.443Z,8.16
2018-07-03T03:54:47.381Z,8.23
2018-07-03T03:55:47.384Z,8.15
2018-07-03T03:56:47.353Z,8.20
2018-07-03T03:57:47.346Z,8.34
2018-07-03T03:58:47.330Z,8.31
2018-07-03T03:59:47.357Z,8.30
2018-07-03T04:00:47.333Z,8.31
2018-07-03T04:01:47.314Z,8.27
2018-07-03T04:02:47.290Z,8.36
2018-07-03T04:03:47.284Z,8.24
2018-07-03T04:04:47.280Z,8.24
2018-07-03T04:05:47.260Z,8.31
2018-07-03T04:06:47.251Z,8.34
2018-07-03T04:07:47.234Z,8.33
2018-07-03T04:08:47.235Z,8.34
2018-07-03T04:09:47.232Z,8.38
2018-07-03T04:10:47.203Z,8.37
2018-07-03T04:11:47.197Z,8.30
2018-07-03T04:12:47.182Z,8.42
2018-07-03T04:13:47.174Z,8.42
2018-07-03T04:14:47.196Z,8.41
2018-07-03T04:15:47.146Z,8.49
2018-07-03T04:16:47.138Z,8.48
2018-07-03T04:17:47.130Z,8.56
2018-07-03T04:18:47.121Z,8.64
2018-07-03T04:19:47.104Z,8.71
2018-07-03T04:20:47.097Z,8.82
2018-07-03T04:21:47.084Z,8.88
2018-07-03T04:22:47.074Z,8.85
2018-07-03T04:23:47.067Z,8.92
2018-07-03T04:24:47.054Z,8.89
2018-07-03T04:25:47.046Z,8.81
2018-07-03T04:26:47.035Z,8.87
2018-07-03T04:27:47.018Z,8.78
2018-07-03T04:28:47.029Z,8.74
2018-07-03T04:29:46.999Z,8.79
2018-07-03T04:30:47.018Z,8.71
2018-07-03T04:31:46.982Z,8.71
2018-07-03T04:32:46.969Z,8.74
2018-07-03T04:33:46.958Z,8.76
2018-07-03T04:34:46.943Z,8.71
2018-07-03T04:35:46.939Z,8.74
2018-07-03T04:36:46.927Z,8.74
2018-07-03T04:37:46.915Z,8.79
2018-07-03T04:38:46.908Z,9.00
2018-07-03T04:39:46.896Z,9.18
2018-07-03T04:40:46.880Z,9.28
2018-07-03T04:41:46.872Z,9.32
2018-07-03T04:42:46.856Z,9.36
2018-07-03T04:43:46.851Z,9.41
2018-07-03T04:44:46.841Z,9.56
2018-07-03T04:45:46.828Z,9.56
2018-07-03T04:46:46.862Z,9.73
2018-07-03T04:47:46.851Z,9.68
2018-07-03T04:48:46.798Z,9.79
2018-07-03T04:49:46.843Z,9.84
2018-07-03T04:50:46.776Z,9.89
2018-07-03T04:51:46.780Z,9.97
2018-07-03T04:52:46.750Z,10.09
2018-07-03T04:53:46.740Z,10.15
2018-07-03T04:54:46.727Z,10.17
2018-07-03T04:55:46.722Z,10.38
2018-07-03T04:56:46.736Z,10.26
2018-07-03T04:57:46.698Z,10.37
2018-07-03T04:58:46.691Z,10.38
2018-07-03T04:59:46.673Z,10.40
2018-07-03T05:00:46.664Z,10.26
2018-07-03T05:01:46.654Z,10.41
2018-07-03T05:02:46.647Z,10.30
2018-07-03T05:03:46.637Z,10.34
2018-07-03T05:04:46.622Z,10.33
2018-07-03T05:05:46.610Z,10.30
2018-07-03T05:06:46.596Z,10.37
2018-07-03T05:07:46.596Z,10.34
2018-07-03T05:08:46.579Z,10.34
2018-07-03T05:09:46.568Z,10.35
2018-07-03T05:10:46.561Z,10.38
2018-07-03T05:11:46.546Z,10.51
2018-07-03T05:12:46.540Z,10.56
2018-07-03T05:13:46.524Z,10.64
2018-07-03T05:14:46.519Z,10.78
2018-07-03T05:15:46.506Z,10.94
2018-07-03T05:16:46.494Z,10.90
2018-07-03T05:17:46.501Z,11.07
2018-07-03T05:18:46.473Z,11.15
2018-07-03T05:19:46.460Z,11.29
2018-07-03T05:20:46.462Z,11.32
2018-07-03T05:21:46.441Z,11.44
2018-07-03T05:22:46.470Z,11.43
2018-07-03T05:23:46.423Z,11.52
2018-07-03T05:24:46.407Z,11.50
2018-07-03T05:25:46.399Z,11.52
2018-07-03T05:26:46.382Z,11.55
2018-07-03T05:27:46.383Z,11.52
2018-07-03T05:28:46.368Z,11.54
2018-07-03T05:29:46.355Z,11.63
2018-07-03T05:30:46.348Z,11.70
2018-07-03T05:31:46.393Z,11.63
2018-07-03T05:32:46.322Z,11.72
2018-07-03T05:33:46.338Z,11.86
2018-07-03T05:34:46.296Z,11.81
2018-07-03T05:35:46.293Z,11.87
2018-07-03T05:36:46.280Z,11.91
2018-07-03T05:37:46.266Z,11.81
2018-07-03T05:38:46.256Z,11.95
2018-07-03T05:39:46.252Z,11.95
2018-07-03T05:40:46.237Z,12.00
2018-07-03T05:41:46.226Z,11.99
2018-07-03T05:42:46.216Z,12.13
2018-07-03T05:43:46.201Z,12.13
2018-07-03T05:44:46.191Z,12.18
2018-07-03T05:45:46.180Z,12.36
2018-07-03T05:46:46.167Z,12.40
2018-07-03T05:47:46.165Z,12.53
2018-07-03T05:48:46.167Z,12.62
2018-07-03T05:49:46.138Z,12.62
2018-07-03T05:50:46.128Z,12.95
2018-07-03T05:51:46.118Z,13.03
2018-07-03T05:52:46.108Z,13.31
2018-07-03T05:53:46.119Z,13.35
2018-07-03T05:54:46.085Z,13.60
2018-07-03T05:55:46.069Z,13.74
2018-07-03T05:56:46.060Z,13.83
2018-07-03T05:57:46.050Z,13.97
2018-07-03T05:58:46.043Z,14.04
2018-07-03T05:59:46.039Z,14.23
2018-07-03T06:00:46.019Z,14.25
2018-07-03T06:01:46.008Z,14.43
2018-07-03T06:02:46.004Z,14.37
2018-07-03T06:03:45.986Z,14.44
2018-07-03T06:04:45.976Z,14.54
2018-07-03T06:05:45.962Z,14.62
2018-07-03T06:06:45.953Z,14.68
2018-07-03T06:07:45.946Z,14.73
2018-07-03T06:08:45.932Z,14.86
2018-07-03T06:09:45.922Z,14.96
2018-07-03T06:10:45.907Z,15.00
2018-07-03T06:11:45.903Z,15.10
2018-07-03T06:12:45.890Z,15.11
2018-07-03T06:13:45.879Z,15.18
2018-07-03T06:14:45.901Z,15.35
2018-07-03T06:15:45.861Z,15.61
2018-07-03T06:16:45.848Z,15.58
2018-07-03T06:17:45.833Z,15.68
2018-07-03T06:18:45.820Z,15.72
2018-07-03T06:19:45.857Z,15.82
2018-07-03T06:20:45.809Z,15.80
2018-07-03T06:21:45.834Z,15.97
2018-07-03T06:22:45.794Z,15.97
2018-07-03T06:23:45.767Z,16.16
2018-07-03T06:24:45.764Z,16.28
2018-07-03T06:25:45.752Z,16.32
2018-07-03T06:26:45.742Z,16.41
2018-07-03T06:27:45.729Z,16.43
2018-07-03T06:28:45.744Z,16.49
2018-07-03T06:29:45.703Z,16.58
2018-07-03T06:30:45.702Z,16.56
2018-07-03T06:31:45.687Z,16.68
2018-07-03T06:32:45.673Z,16.71
2018-07-03T06:33:45.664Z,16.65
2018-07-03T06:34:45.655Z,16.71
2018-07-03T06:35:45.722Z,16.76
2018-07-03T06:36:45.646Z,16.79
2018-07-03T06:37:45.627Z,16.86
2018-07-03T06:38:45.710Z,16.83
2018-07-03T06:39:45.614Z,16.87
2018-07-03T06:40:45.610Z,16.86
2018-07-03T06:41:45.578Z,17.06
2018-07-03T06:42:45.567Z,17.04
2018-07-03T06:43:45.568Z,17.14
2018-07-03T06:44:45.554Z,17.23
2018-07-03T06:45:45.528Z,17.27
2018-07-03T06:46:45.528Z,17.36
2018-07-03T06:47:45.512Z,17.49
2018-07-03T06:48:45.508Z,17.67
2018-07-03T06:49:45.492Z,17.68
2018-07-03T06:50:45.479Z,17.76
2018-07-03T06:51:45.495Z,17.76
2018-07-03T06:52:45.472Z,17.83
2018-07-03T06:53:45.495Z,17.83
2018-07-03T06:54:45.433Z,17.72
2018-07-03T06:55:45.430Z,17.63
2018-07-03T06:56:45.447Z,17.74
2018-07-03T06:57:45.403Z,17.56
2018-07-03T06:58:45.392Z,17.63
2018-07-03T06:59:45.388Z,17.63
2018-07-03T07:00:45.373Z,17.56
2018-07-03T07:01:45.364Z,17.67
2018-07-03T07:02:45.353Z,17.72
2018-07-03T07:03:45.351Z,17.85
2018-07-03T07:04:45.325Z,17.90
2018-07-03T07:05:45.335Z,18.01
2018-07-03T07:06:45.376Z,18.10
2018-07-03T07:07:45.338Z,18.07
2018-07-03T07:08:45.342Z,18.15
2018-07-03T07:09:45.281Z,18.16
2018-07-03T07:10:45.265Z,18.15
2018-07-03T07:11:45.254Z,18.25
2018-07-03T07:12:45.268Z,18.34
2018-07-03T07:13:45.236Z,18.29
2018-07-03T07:14:45.222Z,18.29
2018-07-03T07:15:45.209Z,18.38
2018-07-03T07:16:45.206Z,18.45
2018-07-03T07:17:45.183Z,18.55
2018-07-03T07:18:45.184Z,18.60
2018-07-03T07:19:45.167Z,18.75
2018-07-03T07:20:45.159Z,18.89
2018-07-03T07:21:45.147Z,18.98
2018-07-03T07:22:45.160Z,19.04
2018-07-03T07:23:45.126Z,19.08
2018-07-03T07:24:45.109Z,19.11
2018-07-03T07:25:45.097Z,19.11
2018-07-03T07:26:45.090Z,19.04
2018-07-03T07:27:45.107Z,19.26
2018-07-03T07:28:45.072Z,19.22
2018-07-03T07:29:45.055Z,19.16
2018-07-03T07:30:45.046Z,19.15
2018-07-03T07:31:45.041Z,19.22
2018-07-03T07:32:45.077Z,19.27
2018-07-03T07:33:45.020Z,19.34
2018-07-03T07:34:45.014Z,19.30
2018-07-03T07:35:44.989Z,19.37
2018-07-03T07:36:44.978Z,19.45
2018-07-03T07:37:44.965Z,19.52
2018-07-03T07:38:44.964Z,19.58
2018-07-03T07:39:44.954Z,19.64
2018-07-03T07:40:44.939Z,19.64
2018-07-03T07:41:44.960Z,19.67
2018-07-03T07:42:45.691Z,19.70
2018-07-03T07:43:44.923Z,19.69
2018-07-03T07:44:44.893Z,19.66
2018-07-03T07:45:44.901Z,19.49
2018-07-03T07:46:44.903Z,19.33
2018-07-03T07:47:44.859Z,19.37
2018-07-03T07:48:44.876Z,19.44
2018-07-03T07:49:44.843Z,19.54
2018-07-03T07:50:44.828Z,19.48
2018-07-03T07:51:44.830Z,19.58
2018-07-03T07:52:44.822Z,19.55
2018-07-03T07:53:44.804Z,19.56
2018-07-03T07:54:44.810Z,19.55
2018-07-03T07:55:44.825Z,19.67
2018-07-03T07:56:44.761Z,19.74
2018-07-03T07:57:44.750Z,19.81
2018-07-03T07:58:44.747Z,19.86
2018-07-03T07:59:44.734Z,19.94
2018-07-03T08:00:44.727Z,20.11
2018-07-03T08:01:44.710Z,20.25
2018-07-03T08:02:44.700Z,20.40
2018-07-03T08:03:44.689Z,20.47
2018-07-03T08:04:44.683Z,20.50
2018-07-03T08:05:44.671Z,20.51
2018-07-03T08:06:44.716Z,20.62
2018-07-03T08:07:44.647Z,20.62
2018-07-03T08:08:44.631Z,20.77
2018-07-03T08:09:44.623Z,20.87
2018-07-03T08:10:44.615Z,20.96
2018-07-03T08:11:44.606Z,21.09
2018-07-03T08:12:44.616Z,21.12
2018-07-03T08:13:44.595Z,21.17
2018-07-03T08:14:44.602Z,21.30
2018-07-03T08:15:44.569Z,21.43
2018-07-03T08:16:44.549Z,21.54
2018-07-03T08:17:44.542Z,21.64
2018-07-03T08:18:44.528Z,21.75
2018-07-03T08:19:44.540Z,21.80
2018-07-03T08:20:44.502Z,21.89
2018-07-03T08:21:44.491Z,21.93
2018-07-03T08:22:44.483Z,22.02
2018-07-03T08:23:44.477Z,22.00
2018-07-03T08:24:44.492Z,22.06
2018-07-03T08:25:44.456Z,22.08
2018-07-03T08:26:44.448Z,22.20
2018-07-03T08:27:44.431Z,22.44
2018-07-03T08:28:44.419Z,22.65
2018-07-03T08:29:44.408Z,22.73
2018-07-03T08:30:44.400Z,23.05
2018-07-03T08:31:44.391Z,23.27
2018-07-03T08:32:44.383Z,23.44
2018-07-03T08:33:44.379Z,23.62
2018-07-03T08:34:44.358Z,23.95
2018-07-03T08:35:44.392Z,24.21
2018-07-03T08:36:44.340Z,24.42
2018-07-03T08:37:44.387Z,24.66
2018-07-03T08:38:44.340Z,24.95
2018-07-03T08:39:44.308Z,25.08
2018-07-03T08:40:44.297Z,25.26
2018-07-03T08:41:44.310Z,25.46
2018-07-03T08:42:44.370Z,25.47
2018-07-03T08:43:44.269Z,25.78
2018-07-03T08:44:44.261Z,26.03
2018-07-03T08:45:44.253Z,26.16
2018-07-03T08:46:44.240Z,26.29
2018-07-03T08:47:44.231Z,26.53
2018-07-03T08:48:44.215Z,26.77
2018-07-03T08:49:44.215Z,27.03
2018-07-03T08:50:44.232Z,27.14
2018-07-03T08:51:44.270Z,27.32
2018-07-03T08:52:44.177Z,27.29
2018-07-03T08:53:44.169Z,27.47
2018-07-03T08:54:44.159Z,27.44
2018-07-03T08:55:44.153Z,27.44
2018-07-03T08:56:44.147Z,27.63
2018-07-03T08:57:44.135Z,27.58
2018-07-03T08:58:44.136Z,27.65
2018-07-03T08:59:44.112Z,27.80
2018-07-03T09:00:44.141Z,28.01
2018-07-03T09:01:44.095Z,28.11
2018-07-03T09:02:44.084Z,28.10
2018-07-03T09:03:44.117Z,28.25
2018-07-03T09:04:44.089Z,28.37
2018-07-03T09:05:44.062Z,28.27
2018-07-03T09:06:44.072Z,28.20
2018-07-03T09:07:44.042Z,28.14
2018-07-03T09:08:44.031Z,28.25
2018-07-03T09:09:44.021Z,28.44
2018-07-03T09:10:44.009Z,28.60
2018-07-03T09:11:44.004Z,28.59
2018-07-03T09:12:43.987Z,28.57
2018-07-03T09:13:43.979Z,28.63
2018-07-03T09:14:43.969Z,28.79
2018-07-03T09:15:43.962Z,29.16
2018-07-03T09:16:43.955Z,29.38
2018-07-03T09:17:43.963Z,29.34
2018-07-03T09:18:43.967Z,29.41
2018-07-03T09:19:43.922Z,29.44
2018-07-03T09:20:43.913Z,29.56
2018-07-03T09:21:43.907Z,29.54
2018-07-03T09:22:43.899Z,29.73
2018-07-03T09:23:43.931Z,29.90
2018-07-03T09:24:43.872Z,29.66
2018-07-03T09:25:43.867Z,29.63
2018-07-03T09:26:43.865Z,29.45
2018-07-03T09:27:43.864Z,29.68
2018-07-03T09:28:43.843Z,29.61
2018-07-03T09:29:43.835Z,29.72
2018-07-03T09:30:43.902Z,29.79
2018-07-03T09:31:43.850Z,29.78
2018-07-03T09:32:43.807Z,29.69
2018-07-03T09:33:43.816Z,29.87
2018-07-03T09:34:43.815Z,30.21
2018-07-03T09:35:43.778Z,30.24
2018-07-03T09:36:43.827Z,30.50
2018-07-03T09:37:43.837Z,30.66
2018-07-03T09:38:43.753Z,30.61
2018-07-03T09:39:43.751Z,30.78
2018-07-03T09:40:43.746Z,31.00
2018-07-03T09:41:43.786Z,30.94
2018-07-03T09:42:43.726Z,30.72
2018-07-03T09:43:43.705Z,30.68
2018-07-03T09:44:43.694Z,30.91
2018-07-03T09:45:43.689Z,31.05
2018-07-03T09:46:43.702Z,30.90
2018-07-03T09:47:43.668Z,31.10
2018-07-03T09:48:43.684Z,30.94
2018-07-03T09:49:43.662Z,30.96
2018-07-03T09:50:43.663Z,30.87
2018-07-03T09:51:43.630Z,31.05
2018-07-03T09:52:43.626Z,31.09
2018-07-03T09:53:43.611Z,31.12
2018-07-03T09:54:43.620Z,31.10
2018-07-03T09:55:43.586Z,30.96
2018-07-03T09:56:43.575Z,31.06
2018-07-03T09:57:43.581Z,31.07
2018-07-03T09:58:43.556Z,31.52
2018-07-03T09:59:43.548Z,31.66
2018-07-03T10:00:43.540Z,31.22
2018-07-03T10:01:43.530Z,31.18
2018-07-03T10:02:43.518Z,31.03
2018-07-03T10:03:43.512Z,30.25
2018-07-03T10:04:43.491Z,29.91
2018-07-03T10:05:43.482Z,29.47
2018-07-03T10:06:43.475Z,29.23
2018-07-03T10:07:43.473Z,28.78
2018-07-03T10:08:43.474Z,28.74
2018-07-03T10:09:43.442Z,28.62
2018-07-03T10:10:43.432Z,28.62
2018-07-03T10:11:43.429Z,28.35
2018-07-03T10:12:43.446Z,28.12
2018-07-03T10:13:43.407Z,27.78
2018-07-03T10:14:43.397Z,27.60
2018-07-03T10:15:43.379Z,27.47
2018-07-03T10:16:43.366Z,27.12
2018-07-03T10:17:43.384Z,27.15
2018-07-03T10:18:43.352Z,27.17
2018-07-03T10:19:43.340Z,27.15
2018-07-03T10:20:43.347Z,27.21
2018-07-03T10:21:43.324Z,27.21
2018-07-03T10:22:43.322Z,27.18
2018-07-03T10:23:43.325Z,27.35
2018-07-03T10:24:43.281Z,27.30
2018-07-03T10:25:43.280Z,27.33
2018-07-03T10:26:43.272Z,27.30
2018-07-03T10:27:43.253Z,27.22
2018-07-03T10:28:43.249Z,27.12
2018-07-03T10:29:44.176Z,27.15
2018-07-03T10:30:43.222Z,27.07
2018-07-03T10:31:43.213Z,26.92
2018-07-03T10:32:43.205Z,26.95
2018-07-03T10:33:43.214Z,27.03
2018-07-03T10:34:43.181Z,27.17
2018-07-03T10:35:43.169Z,27.30
2018-07-03T10:36:43.157Z,27.39
2018-07-03T10:37:43.147Z,27.36
2018-07-03T10:38:43.144Z,27.35
2018-07-03T10:39:43.137Z,27.45
2018-07-03T10:40:43.125Z,27.60
2018-07-03T10:41:43.107Z,27.47
2018-07-03T10:42:43.100Z,27.67
2018-07-03T10:43:43.094Z,27.55
2018-07-03T10:44:43.101Z,27.65
2018-07-03T10:45:43.078Z,27.71
2018-07-03T10:46:43.064Z,27.74
2018-07-03T10:47:43.054Z,27.86
2018-07-03T10:48:43.047Z,27.90
2018-07-03T10:49:43.041Z,28.02
2018-07-03T10:50:43.021Z,28.35
2018-07-03T10:51:43.215Z,28.60
2018-07-03T10:52:43.011Z,28.94
2018-07-03T10:53:42.994Z,29.17
2018-07-03T10:54:42.988Z,29.53
2018-07-03T10:55:42.969Z,29.86
2018-07-03T10:56:42.963Z,30.35
2018-07-03T10:57:42.953Z,30.54
2018-07-03T10:58:42.951Z,30.62
2018-07-03T10:59:42.957Z,30.63
2018-07-03T11:00:42.920Z,30.61
2018-07-03T11:01:42.909Z,30.47
2018-07-03T11:02:42.900Z,30.23
2018-07-03T11:03:42.891Z,30.02
2018-07-03T11:04:42.880Z,29.84
2018-07-03T11:05:42.906Z,29.51
2018-07-03T11:06:42.862Z,29.36
2018-07-03T11:07:42.847Z,29.26
2018-07-03T11:08:42.851Z,29.23
2018-07-03T11:09:42.827Z,29.01
2018-07-03T11:10:42.834Z,28.84
2018-07-03T11:11:42.835Z,28.67
2018-07-03T11:12:42.799Z,28.57
2018-07-03T11:13:42.810Z,28.33
2018-07-03T11:14:42.774Z,28.26
2018-07-03T11:15:42.801Z,28.08
2018-07-03T11:16:42.760Z,28.12
2018-07-03T11:17:42.812Z,28.26
2018-07-03T11:18:42.793Z,28.44
2018-07-03T11:19:42.840Z,28.64
2018-07-03T11:20:42.720Z,28.91
2018-07-03T11:21:42.714Z,29.16
2018-07-03T11:22:42.705Z,29.42
2018-07-03T11:23:42.720Z,29.54
2018-07-03T11:24:42.689Z,29.84
2018-07-03T11:25:42.750Z,30.35
2018-07-03T11:26:42.678Z,30.87
2018-07-03T11:27:42.697Z,31.36
2018-07-03T11:28:42.663Z,32.03
2018-07-03T11:29:42.648Z,32.59
2018-07-03T11:30:42.664Z,33.19
2018-07-03T11:31:42.631Z,33.45
2018-07-03T11:32:42.630Z,33.52
2018-07-03T11:33:42.624Z,33.76
2018-07-03T11:34:42.611Z,34.01
2018-07-03T11:35:42.600Z,33.89
2018-07-03T11:36:42.644Z,33.86
2018-07-03T11:37:42.660Z,34.21
2018-07-03T11:38:42.584Z,34.75
2018-07-03T11:39:42.562Z,35.17
2018-07-03T11:40:42.565Z,35.60
2018-07-03T11:41:42.570Z,35.29
2018-07-03T11:42:42.691Z,34.86
2018-07-03T11:43:42.541Z,34.85
2018-07-03T11:44:42.536Z,34.55
2018-07-03T11:45:42.530Z,34.75
2018-07-03T11:46:42.515Z,34.64
2018-07-03T11:47:42.520Z,34.86
2018-07-03T11:48:42.503Z,34.92
2018-07-03T11:49:42.497Z,35.00
2018-07-03T11:50:42.527Z,35.46
2018-07-03T11:51:42.674Z,36.14
2018-07-03T11:52:42.492Z,36.81
2018-07-03T11:53:42.664Z,37.17
2018-07-03T11:54:42.540Z,37.49
2018-07-03T11:55:42.685Z,37.28
2018-07-03T11:56:42.668Z,37.26
2018-07-03T11:57:42.501Z,37.03
2018-07-03T11:58:42.632Z,36.88
2018-07-03T11:59:42.439Z,36.62
2018-07-03T12:00:42.416Z,36.21
2018-07-03T12:01:42.517Z,36.55
2018-07-03T12:02:42.406Z,36.64
2018-07-03T12:03:42.390Z,36.99
2018-07-03T12:04:42.428Z,37.37
2018-07-03T12:05:42.382Z,37.13
2018-07-03T12:06:42.398Z,36.73
2018-07-03T12:07:42.371Z,36.31
2018-07-03T12:08:42.362Z,36.58
2018-07-03T12:09:42.376Z,36.96
2018-07-03T12:10:42.350Z,37.45
2018-07-03T12:11:42.338Z,37.65
2018-07-03T12:12:42.336Z,37.82
2018-07-03T12:13:42.327Z,38.05
2018-07-03T12:14:42.319Z,38.40
2018-07-03T12:15:42.330Z,38.65
2018-07-03T12:16:42.310Z,38.97
2018-07-03T12:17:42.306Z,38.83
2018-07-03T12:18:42.294Z,38.83
2018-07-03T12:19:42.317Z,39.03
2018-07-03T12:20:42.284Z,38.95
2018-07-03T12:21:42.303Z,38.46
2018-07-03T12:22:42.301Z,38.55
2018-07-03T12:23:42.264Z,38.97
2018-07-03T12:24:42.255Z,39.41
2018-07-03T12:25:42.250Z,39.80
2018-07-03T12:26:42.251Z,39.94
2018-07-03T12:27:42.267Z,39.74
2018-07-03T12:28:42.234Z,39.74
2018-07-03T12:29:42.227Z,39.70
2018-07-03T12:30:42.222Z,39.62
2018-07-03T12:31:42.207Z,39.46
2018-07-03T12:32:42.202Z,39.26
2018-07-03T12:33:42.262Z,39.41
2018-07-03T12:34:42.194Z,39.24
2018-07-03T12:35:42.189Z,38.31
2018-07-03T12:36:42.193Z,37.97
2018-07-03T12:37:42.173Z,38.11
2018-07-03T12:38:42.164Z,37.99
2018-07-03T12:39:42.175Z,37.70
2018-07-03T12:40:42.154Z,37.65
2018-07-03T12:41:42.147Z,38.02
2018-07-03T12:42:42.155Z,38.14
2018-07-03T12:43:42.133Z,38.91
2018-07-03T12:44:42.128Z,39.07
2018-07-03T12:45:42.138Z,39.51
2018-07-03T12:46:42.138Z,39.48
2018-07-03T12:47:42.108Z,39.38
2018-07-03T12:48:42.102Z,39.25
2018-07-03T12:49:42.123Z,39.25
2018-07-03T12:50:42.082Z,39.67
2018-07-03T12:51:42.150Z,39.93
2018-07-03T12:52:42.073Z,40.15
2018-07-03T12:53:42.086Z,40.28
2018-07-03T12:54:42.064Z,40.90
2018-07-03T12:55:42.048Z,41.37
2018-07-03T12:56:42.044Z,41.26
2018-07-03T12:57:42.048Z,41.50
2018-07-03T12:58:42.055Z,41.34
2018-07-03T12:59:42.027Z,40.72